createdAt,value
2019-03-30T00:00:03.519Z,14.79
2019-03-30T00:01:03.057Z,15.74
2019-03-30T00:02:03.910Z,14.75
2019-03-30T00:03:03.379Z,14.08
2019-03-30T00:04:03.468Z,13.74
2019-03-30T00:05:03.468Z,15.44
2019-03-30T00:06:03.094Z,15.28
2019-03-30T00:07:03.663Z,14.59
2019-03-30T00:08:03.270Z,14.88
2019-03-30T00:09:03.476Z,14.48
2019-03-30T00:10:03.166Z,14.31
2019-03-30T00:11:03.136Z,14.69
2019-03-30T00:12:03.091Z,14.3
2019-03-30T00:13:02.975Z,15.3
2019-03-30T00:14:02.946Z,15.59
2019-03-30T00:15:03.443Z,15.59
2019-03-30T00:16:03.295Z,14.15
2019-03-30T00:17:03.539Z,14.89
2019-03-30T00:18:03.241Z,14.89
2019-03-30T00:19:03.464Z,13.57
2019-03-30T00:20:03.371Z,15.11
2019-03-30T00:21:03.477Z,13.71
2019-03-30T00:22:03.288Z,14.59
2019-03-30T00:23:03.278Z,14.28
2019-03-30T00:24:03.413Z,14.27
2019-03-30T00:25:03.010Z,14.78
2019-03-30T00:26:03.272Z,14.71
2019-03-30T00:27:03.213Z,15.06
2019-03-30T00:28:03.529Z,13.9
2019-03-30T00:29:03.292Z,14.01
2019-03-30T00:30:03.188Z,15.53
2019-03-30T00:31:03.290Z,14.68
2019-03-30T00:32:03.369Z,14.39
2019-03-30T00:33:03.071Z,12.82
2019-03-30T00:34:03.041Z,13.92
2019-03-30T00:35:03.157Z,13.52
2019-03-30T00:36:02.999Z,13.02
2019-03-30T00:37:02.715Z,14.74
2019-03-30T00:38:02.976Z,15.06
2019-03-30T00:39:03.363Z,15.15
2019-03-30T00:40:03.208Z,13.46
2019-03-30T00:41:03.235Z,13.82
2019-03-30T00:42:03.165Z,14.01
2019-03-30T00:43:03.125Z,15
2019-03-30T00:44:03.305Z,14.35
2019-03-30T00:45:03.408Z,13.84
2019-03-30T00:46:03.102Z,14.28
2019-03-30T00:47:02.966Z,13.88
2019-03-30T00:48:03.324Z,13.09
2019-03-30T00:49:02.766Z,14.74
2019-03-30T00:50:03.229Z,14.5
2019-03-30T00:51:03.291Z,14.16
2019-03-30T00:52:03.323Z,15.07
2019-03-30T00:53:03.220Z,13.92
2019-03-30T00:54:03.140Z,14.65
2019-03-30T00:55:03.360Z,15.12
2019-03-30T00:56:03.135Z,14.21
2019-03-30T00:57:03.021Z,15.03
2019-03-30T00:58:03.061Z,13.96
2019-03-30T00:59:02.983Z,15.09
2019-03-30T01:00:03.080Z,14.16
2019-03-30T01:01:02.787Z,14.56
2019-03-30T01:02:02.966Z,13.72
2019-03-30T01:03:03.096Z,13.49
2019-03-30T01:04:02.834Z,15.28
2019-03-30T01:05:03.232Z,13.72
2019-03-30T01:06:02.969Z,15.21
2019-03-30T01:07:03.002Z,15.21
2019-03-30T01:08:02.927Z,14.55
2019-03-30T01:09:03.240Z,14.26
2019-03-30T01:10:03.108Z,15.45
2019-03-30T01:11:02.851Z,14.26
2019-03-30T01:12:02.865Z,14.66
2019-03-30T01:13:03.363Z,14.15
2019-03-30T01:14:02.841Z,14.76
2019-03-30T01:15:03.206Z,14.76
2019-03-30T01:16:02.659Z,15.42
2019-03-30T01:17:02.835Z,14.05
2019-03-30T01:18:03.565Z,15.38
2019-03-30T01:19:02.797Z,14.24
2019-03-30T01:20:03.956Z,14.98
2019-03-30T01:21:02.874Z,14.81
2019-03-30T01:22:02.747Z,14.55
2019-03-30T01:23:02.977Z,14.24
2019-03-30T01:24:02.790Z,15.13
2019-03-30T01:25:03.003Z,14.94
2019-03-30T01:26:02.730Z,14.97
2019-03-30T01:27:03.466Z,15.76
2019-03-30T01:28:03.511Z,15.44
2019-03-30T01:29:03.412Z,15.06
2019-03-30T01:30:04.228Z,14.78
2019-03-30T01:31:03.591Z,15.97
2019-03-30T01:32:03.498Z,15.67
2019-03-30T01:33:03.455Z,15.84
2019-03-30T01:34:03.619Z,14.97
2019-03-30T01:35:03.520Z,15.18
2019-03-30T01:36:03.461Z,14.69
2019-03-30T01:37:03.604Z,14.35
2019-03-30T01:38:02.826Z,15.72
2019-03-30T01:39:03.546Z,15.49
2019-03-30T01:40:03.001Z,15.96
2019-03-30T01:41:02.641Z,15.41
2019-03-30T01:42:03.219Z,15.44
2019-03-30T01:43:02.620Z,15.69
2019-03-30T01:44:02.731Z,14.55
2019-03-30T01:45:03.269Z,15.36
2019-03-30T01:46:03.656Z,14.48
2019-03-30T01:47:02.742Z,16.19
2019-03-30T01:48:02.698Z,14.43
2019-03-30T01:49:02.959Z,15.74
2019-03-30T01:50:18.027Z,14.81
2019-03-30T01:51:02.834Z,14.78
2019-03-30T01:52:03.415Z,14.78
2019-03-30T01:53:03.235Z,15.39
2019-03-30T01:54:03.079Z,15.52
2019-03-30T01:55:02.783Z,15.52
2019-03-30T01:56:02.847Z,14.07
2019-03-30T01:57:02.900Z,14.07
2019-03-30T01:58:02.865Z,13.89
2019-03-30T01:59:02.916Z,14.52
2019-03-30T02:00:02.881Z,14.62
2019-03-30T02:01:02.858Z,14.42
2019-03-30T02:02:03.105Z,14.39
2019-03-30T02:03:03.023Z,14.12
2019-03-30T02:04:02.697Z,14.03
2019-03-30T02:05:03.271Z,14.96
2019-03-30T02:06:02.937Z,14.26
2019-03-30T02:07:02.718Z,15.16
2019-03-30T02:08:02.945Z,14.79
2019-03-30T02:09:02.739Z,15.61
2019-03-30T02:10:03.645Z,15.96
2019-03-30T02:11:03.612Z,15.29
2019-03-30T02:12:02.804Z,14.58
2019-03-30T02:13:02.890Z,14.09
2019-03-30T02:14:03.726Z,15.81
2019-03-30T02:15:03.057Z,15.55
2019-03-30T02:16:03.281Z,14.88
2019-03-30T02:17:02.822Z,14.61
2019-03-30T02:18:03.038Z,15.56
2019-03-30T02:19:02.974Z,13.57
2019-03-30T02:20:03.198Z,14.76
2019-03-30T02:21:02.973Z,16.33
2019-03-30T02:22:02.981Z,13.38
2019-03-30T02:23:03.064Z,14.28
2019-03-30T02:24:02.852Z,15.72
2019-03-30T02:25:02.978Z,15.35
2019-03-30T02:26:03.302Z,15.46
2019-03-30T02:27:03.097Z,15.19
2019-03-30T02:28:07.223Z,15.97
2019-03-30T02:29:03.040Z,15.97
2019-03-30T02:30:02.976Z,16.31
2019-03-30T02:31:03.081Z,16.26
2019-03-30T02:32:03.036Z,16.26
2019-03-30T02:33:03.157Z,16.71
2019-03-30T02:34:02.840Z,16.94
2019-03-30T02:35:03.154Z,16.94
2019-03-30T02:36:03.013Z,16.27
2019-03-30T02:37:02.982Z,15.13
2019-03-30T02:38:02.911Z,14.94
2019-03-30T02:39:02.818Z,15.51
2019-03-30T02:40:03.003Z,14.78
2019-03-30T02:41:02.725Z,14.74
2019-03-30T02:42:03.005Z,15.71
2019-03-30T02:43:02.577Z,14.37
2019-03-30T02:44:03.091Z,13.65
2019-03-30T02:45:03.356Z,14.38
2019-03-30T02:46:02.965Z,14.32
2019-03-30T02:47:03.727Z,12.81
2019-03-30T02:48:03.667Z,13.24
2019-03-30T02:49:02.677Z,14.83
2019-03-30T02:50:02.825Z,15.88
2019-03-30T02:51:02.949Z,16.11
2019-03-30T02:52:02.743Z,13.9
2019-03-30T02:53:02.563Z,14.34
2019-03-30T02:54:03.557Z,16.33
2019-03-30T02:55:03.646Z,16.16
2019-03-30T02:56:03.678Z,15.02
2019-03-30T02:57:02.936Z,15.33
2019-03-30T02:58:03.755Z,16.13
2019-03-30T02:59:02.978Z,16.28
2019-03-30T03:00:02.776Z,15.59
2019-03-30T03:01:03.299Z,15.17
2019-03-30T03:02:03.212Z,14.88
2019-03-30T03:03:02.757Z,15.16
2019-03-30T03:04:02.798Z,15.64
2019-03-30T03:05:02.846Z,15.05
2019-03-30T03:06:02.938Z,14.51
2019-03-30T03:07:02.791Z,13.53
2019-03-30T03:08:03.202Z,14.78
2019-03-30T03:09:02.681Z,13.72
2019-03-30T03:10:02.832Z,14.06
2019-03-30T03:11:03.097Z,13.96
2019-03-30T03:12:03.659Z,13.75
2019-03-30T03:13:02.936Z,13.87
2019-03-30T03:14:03.081Z,13.87
2019-03-30T03:15:03.303Z,13.65
2019-03-30T03:16:03.424Z,14.11
2019-03-30T03:17:03.288Z,14.11
2019-03-30T03:18:03.648Z,14.41
2019-03-30T03:19:03.332Z,14.25
2019-03-30T03:20:03.211Z,14.21
2019-03-30T03:21:08.809Z,14.21
2019-03-30T03:22:03.242Z,13.79
2019-03-30T03:23:03.353Z,14.74
2019-03-30T03:24:03.325Z,14.23
2019-03-30T03:25:03.439Z,13.76
2019-03-30T03:26:03.250Z,14.84
2019-03-30T03:27:04.169Z,14.91
2019-03-30T03:28:03.094Z,15.29
2019-03-30T03:29:03.353Z,14.75
2019-03-30T03:30:03.580Z,14.83
2019-03-30T03:31:03.366Z,13.94
2019-03-30T03:32:03.604Z,15.85
2019-03-30T03:33:03.320Z,15.01
2019-03-30T03:34:03.471Z,14.05
2019-03-30T03:35:03.302Z,14.56
2019-03-30T03:36:03.199Z,15.3
2019-03-30T03:37:03.267Z,14.63
2019-03-30T03:38:03.403Z,14.63
2019-03-30T03:39:03.078Z,15.28
2019-03-30T03:40:03.278Z,14.84
2019-03-30T03:41:03.176Z,14.73
2019-03-30T03:42:03.160Z,15.09
2019-03-30T03:43:03.385Z,15.58
2019-03-30T03:44:03.011Z,15.6
2019-03-30T03:45:03.361Z,14.38
2019-03-30T03:46:03.091Z,16.44
2019-03-30T03:47:03.255Z,14.47
2019-03-30T03:48:02.999Z,14.01
2019-03-30T03:49:03.182Z,15.49
2019-03-30T03:50:03.124Z,14.38
2019-03-30T03:51:03.245Z,15.61
2019-03-30T03:52:03.242Z,14.5
2019-03-30T03:53:03.610Z,15.36
2019-03-30T03:54:02.864Z,14.88
2019-03-30T03:55:03.105Z,14.81
2019-03-30T03:56:02.911Z,15.76
2019-03-30T03:57:02.878Z,15.44
2019-03-30T03:58:03.281Z,14.33
2019-03-30T03:59:02.975Z,15.99
2019-03-30T04:00:02.802Z,15.04
2019-03-30T04:01:02.877Z,15.31
2019-03-30T04:02:02.847Z,14.9
2019-03-30T04:03:02.865Z,14.39
2019-03-30T04:04:03.299Z,13.69
2019-03-30T04:05:02.944Z,15.14
2019-03-30T04:06:03.081Z,15.14
2019-03-30T04:07:02.951Z,15.81
2019-03-30T04:08:02.977Z,17.14
2019-03-30T04:09:03.848Z,17.14
2019-03-30T04:10:03.237Z,16.81
2019-03-30T04:11:03.709Z,16.81
2019-03-30T04:12:03.399Z,15.28
2019-03-30T04:13:07.318Z,15.36
2019-03-30T04:14:04.062Z,15.18
2019-03-30T04:15:02.681Z,16.44
2019-03-30T04:16:03.762Z,15.59
2019-03-30T04:17:03.289Z,15.59
2019-03-30T04:18:03.373Z,14.48
2019-03-30T04:19:03.265Z,14.85
2019-03-30T04:20:03.506Z,17.02
2019-03-30T04:21:03.247Z,15.39
2019-03-30T04:22:03.650Z,14.23
2019-03-30T04:23:03.441Z,14.42
2019-03-30T04:24:03.609Z,14.65
2019-03-30T04:25:03.849Z,13.45
2019-03-30T04:26:02.784Z,13.54
2019-03-30T04:27:03.584Z,14.14
2019-03-30T04:28:03.585Z,13.46
2019-03-30T04:29:03.691Z,13.67
2019-03-30T04:30:03.547Z,14.24
2019-03-30T04:31:03.290Z,15.31
2019-03-30T04:32:03.245Z,13.83
2019-03-30T04:33:03.525Z,13.62
2019-03-30T04:34:03.628Z,14.48
2019-03-30T04:35:03.835Z,13.66
2019-03-30T04:36:03.456Z,12.57
2019-03-30T04:37:02.608Z,13.38
2019-03-30T04:38:03.462Z,14.18
2019-03-30T04:39:03.697Z,14.34
2019-03-30T04:40:02.848Z,14.73
2019-03-30T04:41:03.430Z,14.04
2019-03-30T04:42:03.486Z,15.61
2019-03-30T04:43:03.289Z,15.58
2019-03-30T04:44:03.351Z,14.73
2019-03-30T04:45:03.117Z,15.17
2019-03-30T04:46:03.727Z,14.35
2019-03-30T04:47:03.401Z,14.86
2019-03-30T04:48:03.258Z,14.99
2019-03-30T04:49:03.212Z,15.64
2019-03-30T04:50:02.957Z,13.98
2019-03-30T04:51:03.630Z,15.15
2019-03-30T04:52:02.751Z,15.29
2019-03-30T04:53:02.857Z,14.16
2019-03-30T04:54:02.765Z,14.16
2019-03-30T04:55:02.882Z,15.32
2019-03-30T04:56:03.677Z,15.93
2019-03-30T04:57:02.672Z,15.93
2019-03-30T04:58:02.562Z,15.32
2019-03-30T04:59:02.738Z,16.29
2019-03-30T05:00:03.475Z,16.92
2019-03-30T05:01:02.953Z,15.48
2019-03-30T05:02:03.550Z,17.06
2019-03-30T05:03:02.853Z,18.26
2019-03-30T05:04:02.863Z,16.68
2019-03-30T05:05:02.943Z,15.42
2019-03-30T05:06:02.635Z,15.35
2019-03-30T05:07:02.901Z,15.64
2019-03-30T05:08:02.874Z,16.35
2019-03-30T05:09:02.679Z,15.7
2019-03-30T05:10:03.084Z,14.96
2019-03-30T05:11:03.639Z,15.48
2019-03-30T05:12:02.586Z,15.79
2019-03-30T05:13:03.408Z,15.08
2019-03-30T05:14:02.900Z,15.24
2019-03-30T05:15:02.868Z,14.99
2019-03-30T05:16:02.838Z,14.98
2019-03-30T05:17:03.733Z,16.01
2019-03-30T05:18:02.601Z,15.43
2019-03-30T05:19:02.691Z,16.03
2019-03-30T05:20:03.541Z,15.44
2019-03-30T05:21:02.698Z,16.53
2019-03-30T05:22:16.291Z,15.32
2019-03-30T05:23:03.509Z,17.11
2019-03-30T05:24:03.608Z,16.32
2019-03-30T05:25:03.048Z,16.84
2019-03-30T05:26:03.437Z,17.06
2019-03-30T05:27:03.618Z,17.04
2019-03-30T05:28:03.511Z,17.39
2019-03-30T05:29:03.615Z,16.14
2019-03-30T05:30:03.606Z,16.16
2019-03-30T05:31:03.056Z,16.83
2019-03-30T05:32:02.772Z,16.47
2019-03-30T05:33:06.535Z,17.04
2019-03-30T05:34:02.859Z,16.19
2019-03-30T05:35:03.008Z,17.41
2019-03-30T05:36:02.752Z,17.11
2019-03-30T05:37:02.711Z,15.4
2019-03-30T05:38:02.942Z,17.11
2019-03-30T05:39:02.767Z,17.96
2019-03-30T05:40:03.027Z,16.09
2019-03-30T05:41:02.675Z,16.94
2019-03-30T05:42:03.500Z,16.94
2019-03-30T05:43:03.482Z,15.28
2019-03-30T05:44:03.287Z,16.61
2019-03-30T05:45:03.870Z,15.68
2019-03-30T05:46:03.293Z,17.38
2019-03-30T05:47:03.661Z,17.89
2019-03-30T05:48:03.173Z,16
2019-03-30T05:49:03.667Z,16.91
2019-03-30T05:50:03.271Z,16.88
2019-03-30T05:51:03.537Z,16.4
2019-03-30T05:52:03.473Z,16.4
2019-03-30T05:53:03.364Z,15.38
2019-03-30T05:54:03.167Z,15.43
2019-03-30T05:55:03.640Z,15.87
2019-03-30T05:56:03.488Z,16.79
2019-03-30T05:57:03.238Z,16.34
2019-03-30T05:58:03.675Z,18.66
2019-03-30T05:59:03.073Z,17.82
2019-03-30T06:00:03.271Z,15.93
2019-03-30T06:01:03.293Z,17.3
2019-03-30T06:02:03.132Z,18.06
2019-03-30T06:03:03.052Z,15.97
2019-03-30T06:04:02.815Z,15.05
2019-03-30T06:05:03.963Z,16.56
2019-03-30T06:06:03.040Z,16.41
2019-03-30T06:07:03.043Z,16.42
2019-03-30T06:08:02.750Z,18.21
2019-03-30T06:09:03.505Z,17.36
2019-03-30T06:10:03.669Z,18.16
2019-03-30T06:11:03.235Z,18.02
2019-03-30T06:12:03.459Z,18.52
2019-03-30T06:13:03.502Z,17.7
2019-03-30T06:14:03.264Z,17.02
2019-03-30T06:15:03.494Z,17.94
2019-03-30T06:16:03.255Z,18.71
2019-03-30T06:17:03.224Z,19.44
2019-03-30T06:18:03.334Z,19.65
2019-03-30T06:19:02.831Z,18.49
2019-03-30T06:20:02.891Z,17.34
2019-03-30T06:21:02.777Z,18.42
2019-03-30T06:22:02.938Z,16.66
2019-03-30T06:23:02.916Z,17.17
2019-03-30T06:24:02.920Z,17.15
2019-03-30T06:25:03.514Z,17.15
2019-03-30T06:26:03.286Z,17.18
2019-03-30T06:27:03.406Z,17.43
2019-03-30T06:28:02.987Z,19.09
2019-03-30T06:29:02.824Z,17.54
2019-03-30T06:30:03.249Z,18.01
2019-03-30T06:31:03.393Z,17.44
2019-03-30T06:32:03.346Z,19.06
2019-03-30T06:33:03.227Z,18.76
2019-03-30T06:34:03.661Z,16.23
2019-03-30T06:35:03.192Z,19.57
2019-03-30T06:36:03.197Z,17.33
2019-03-30T06:37:03.617Z,17.33
2019-03-30T06:38:01.736Z,18.39
2019-03-30T06:39:03.313Z,17.75
2019-03-30T06:40:02.918Z,17.75
2019-03-30T06:41:03.347Z,19.12
2019-03-30T06:42:02.685Z,17.66
2019-03-30T06:43:03.571Z,19.45
2019-03-30T06:44:03.561Z,19.22
2019-03-30T06:45:03.464Z,18.78
2019-03-30T06:46:03.346Z,18.58
2019-03-30T06:47:03.390Z,21.22
2019-03-30T06:48:03.163Z,19.26
2019-03-30T06:49:02.816Z,18.39
2019-03-30T06:50:03.178Z,18.78
2019-03-30T06:51:02.920Z,19.99
2019-03-30T06:52:03.253Z,18.03
2019-03-30T06:53:03.345Z,17.11
2019-03-30T06:54:02.835Z,17.6
2019-03-30T06:55:03.573Z,17
2019-03-30T06:56:03.297Z,18.19
2019-03-30T06:57:03.451Z,17.9
2019-03-30T06:58:03.354Z,19.28
2019-03-30T06:59:03.208Z,18.95
2019-03-30T07:00:03.590Z,18.32
2019-03-30T07:01:03.621Z,19.42
2019-03-30T07:02:03.399Z,20.11
2019-03-30T07:03:03.003Z,19.02
2019-03-30T07:04:03.387Z,18.29
2019-03-30T07:05:03.430Z,18.06
2019-03-30T07:06:03.216Z,19.01
2019-03-30T07:07:03.433Z,18.52
2019-03-30T07:08:03.590Z,19.65
2019-03-30T07:09:03.504Z,20.03
2019-03-30T07:10:03.592Z,18.98
2019-03-30T07:11:03.527Z,19.04
2019-03-30T07:12:03.520Z,18.66
2019-03-30T07:13:03.351Z,20.94
2019-03-30T07:14:02.760Z,20.15
2019-03-30T07:15:03.224Z,19.55
2019-03-30T07:16:03.697Z,17.61
2019-03-30T07:17:03.402Z,19.85
2019-03-30T07:18:03.331Z,19.14
2019-03-30T07:19:03.387Z,20.2
2019-03-30T07:20:03.387Z,19.14
2019-03-30T07:21:03.628Z,19.32
2019-03-30T07:22:03.327Z,19.68
2019-03-30T07:23:12.788Z,19.86
2019-03-30T07:24:03.358Z,18.68
2019-03-30T07:25:03.667Z,18.68
2019-03-30T07:26:03.420Z,19.76
2019-03-30T07:27:03.105Z,20.64
2019-03-30T07:28:03.540Z,20.64
2019-03-30T07:29:03.281Z,20.72
2019-03-30T07:30:03.225Z,20.99
2019-03-30T07:31:03.223Z,20.99
2019-03-30T07:32:03.270Z,20.03
2019-03-30T07:33:03.261Z,19.92
2019-03-30T07:34:02.874Z,19.62
2019-03-30T07:35:03.293Z,19.72
2019-03-30T07:36:03.480Z,19.2
2019-03-30T07:37:03.501Z,19.94
2019-03-30T07:38:03.220Z,22.22
2019-03-30T07:39:02.640Z,20.56
2019-03-30T07:40:03.550Z,21.34
2019-03-30T07:41:03.428Z,19.72
2019-03-30T07:42:03.533Z,20.3
2019-03-30T07:43:03.236Z,20.8
2019-03-30T07:44:03.338Z,20.29
2019-03-30T07:45:03.398Z,21.14
2019-03-30T07:46:03.289Z,20.96
2019-03-30T07:47:03.275Z,20.01
2019-03-30T07:48:03.386Z,19.88
2019-03-30T07:49:03.657Z,20.01
2019-03-30T07:50:03.387Z,20.52
2019-03-30T07:51:03.188Z,20.12
2019-03-30T07:52:03.535Z,21.46
2019-03-30T07:53:03.266Z,19.82
2019-03-30T07:54:03.333Z,20.22
2019-03-30T07:55:03.333Z,21.08
2019-03-30T07:56:09.068Z,20.84
2019-03-30T07:57:14.938Z,20
2019-03-30T07:58:04.044Z,21
2019-03-30T07:59:03.189Z,20.42
2019-03-30T08:00:03.462Z,21.81
2019-03-30T08:01:03.181Z,19.92
2019-03-30T08:02:03.505Z,20.28
2019-03-30T08:03:03.472Z,21.6
2019-03-30T08:04:03.626Z,21.76
2019-03-30T08:05:03.440Z,21.42
2019-03-30T08:06:02.897Z,21.34
2019-03-30T08:07:03.411Z,20.72
2019-03-30T08:08:03.223Z,21.16
2019-03-30T08:09:03.569Z,21.21
2019-03-30T08:10:03.543Z,21.13
2019-03-30T08:11:03.340Z,21.95
2019-03-30T08:12:03.483Z,21.92
2019-03-30T08:13:03.510Z,21.27
2019-03-30T08:14:03.533Z,21.27
2019-03-30T08:15:03.684Z,20.73
2019-03-30T08:16:03.102Z,20.73
2019-03-30T08:17:03.443Z,21.34
2019-03-30T08:18:03.355Z,21.29
2019-03-30T08:19:03.596Z,21.29
2019-03-30T08:20:03.574Z,21.74
2019-03-30T08:21:02.767Z,21.85
2019-03-30T08:22:02.800Z,20.68
2019-03-30T08:23:02.958Z,20.86
2019-03-30T08:24:03.586Z,20.71
2019-03-30T08:25:02.859Z,21.9
2019-03-30T08:26:02.781Z,20.99
2019-03-30T08:27:03.165Z,21.02
2019-03-30T08:28:02.864Z,22.39
2019-03-30T08:29:02.490Z,21.75
2019-03-30T08:30:03.271Z,22.7
2019-03-30T08:31:02.758Z,21.79
2019-03-30T08:32:03.201Z,21.7
2019-03-30T08:33:03.505Z,21.18
2019-03-30T08:34:02.713Z,22.25
2019-03-30T08:35:03.598Z,21.95
2019-03-30T08:36:03.266Z,21.82
2019-03-30T08:37:03.440Z,22
2019-03-30T08:38:03.486Z,22.01
2019-03-30T08:39:03.425Z,21.44
2019-03-30T08:40:03.588Z,22.26
2019-03-30T08:41:03.630Z,21.18
2019-03-30T08:42:03.552Z,22.48
2019-03-30T08:43:02.831Z,21.36
2019-03-30T08:44:03.680Z,21.38
2019-03-30T08:45:03.880Z,20.71
2019-03-30T08:46:02.833Z,21.84
2019-03-30T08:47:02.877Z,22.74
2019-03-30T08:48:02.741Z,21.52
2019-03-30T08:49:03.011Z,20.54
2019-03-30T08:50:02.625Z,21.45
2019-03-30T08:51:02.882Z,22.08
2019-03-30T08:52:03.046Z,21.84
2019-03-30T08:53:02.796Z,21.99
2019-03-30T08:54:03.190Z,21.89
2019-03-30T08:55:03.243Z,20.85
2019-03-30T08:56:03.541Z,21.14
2019-03-30T08:57:03.262Z,20.74
2019-03-30T08:58:02.902Z,21.35
2019-03-30T08:59:02.782Z,23.12
2019-03-30T09:00:03.375Z,23.14
2019-03-30T09:01:03.388Z,20.86
2019-03-30T09:02:03.313Z,20.86
2019-03-30T09:03:02.588Z,21.93
2019-03-30T09:04:03.089Z,21.93
2019-03-30T09:05:02.964Z,21.62
2019-03-30T09:06:03.766Z,22.91
2019-03-30T09:07:03.314Z,22.91
2019-03-30T09:08:03.318Z,21.26
2019-03-30T09:09:02.855Z,21.39
2019-03-30T09:10:03.023Z,21.84
2019-03-30T09:11:03.185Z,22.36
2019-03-30T09:12:02.708Z,22.63
2019-03-30T09:13:02.862Z,21.81
2019-03-30T09:14:03.733Z,22.5
2019-03-30T09:15:03.193Z,21.44
2019-03-30T09:16:02.833Z,21.66
2019-03-30T09:17:02.560Z,22.86
2019-03-30T09:18:03.274Z,21.99
2019-03-30T09:19:03.096Z,21.73
2019-03-30T09:20:02.902Z,22.01
2019-03-30T09:21:03.276Z,22.71
2019-03-30T09:22:03.152Z,22.77
2019-03-30T09:23:03.048Z,23.44
2019-03-30T09:24:10.409Z,20.99
2019-03-30T09:25:03.295Z,22.36
2019-03-30T09:26:03.373Z,20.01
2019-03-30T09:27:02.939Z,22.24
2019-03-30T09:28:02.965Z,21.27
2019-03-30T09:29:03.451Z,22.59
2019-03-30T09:30:03.231Z,22.12
2019-03-30T09:31:03.013Z,22.26
2019-03-30T09:32:15.022Z,24.65
2019-03-30T09:33:03.254Z,21.49
2019-03-30T09:34:02.952Z,21.21
2019-03-30T09:35:03.141Z,23.37
2019-03-30T09:36:02.964Z,24.01
2019-03-30T09:37:02.852Z,23.08
2019-03-30T09:38:03.038Z,23.19
2019-03-30T09:39:02.828Z,23.28
2019-03-30T09:40:03.220Z,23.15
2019-03-30T09:41:03.086Z,21.61
2019-03-30T09:42:03.030Z,22.78
2019-03-30T09:43:03.649Z,22.28
2019-03-30T09:44:03.668Z,23.22
2019-03-30T09:45:03.671Z,22.58
2019-03-30T09:46:02.778Z,21.26
2019-03-30T09:47:03.631Z,22.3
2019-03-30T09:48:03.645Z,22.64
2019-03-30T09:49:03.872Z,23.11
2019-03-30T09:50:03.566Z,22.02
2019-03-30T09:51:03.210Z,22.58
2019-03-30T09:52:03.844Z,21.46
2019-03-30T09:53:02.649Z,21.55
2019-03-30T09:54:03.253Z,21.55
2019-03-30T09:55:03.025Z,20.82
2019-03-30T09:56:02.821Z,20.82
2019-03-30T09:57:03.135Z,22.52
2019-03-30T09:58:03.091Z,20.88
2019-03-30T09:59:02.797Z,20.88
2019-03-30T10:00:03.271Z,20.81
2019-03-30T10:01:02.709Z,19.98
2019-03-30T10:02:03.036Z,20.6
2019-03-30T10:03:06.370Z,21.38
2019-03-30T10:04:02.948Z,20.04
2019-03-30T10:05:02.767Z,19.96
2019-03-30T10:06:03.005Z,22.26
2019-03-30T10:07:02.919Z,19.43
2019-03-30T10:08:02.876Z,20.6
2019-03-30T10:09:03.689Z,21.03
2019-03-30T10:10:02.954Z,20.62
2019-03-30T10:11:02.997Z,21.28
2019-03-30T10:12:03.301Z,20.31
2019-03-30T10:13:03.081Z,20.21
2019-03-30T10:14:03.382Z,19.81
2019-03-30T10:15:03.429Z,22.04
2019-03-30T10:16:03.430Z,20.12
2019-03-30T10:17:03.859Z,21.7
2019-03-30T10:18:02.932Z,20.29
2019-03-30T10:19:03.711Z,19.22
2019-03-30T10:20:05.214Z,20.55
2019-03-30T10:21:03.580Z,20.01
2019-03-30T10:22:03.210Z,20.26
2019-03-30T10:23:03.253Z,19.95
2019-03-30T10:24:03.644Z,19.51
2019-03-30T10:25:02.567Z,20.48
2019-03-30T10:26:03.759Z,19.55
2019-03-30T10:27:02.870Z,20.41
2019-03-30T10:28:02.781Z,19.48
2019-03-30T10:29:03.647Z,19.92
2019-03-30T10:30:02.954Z,20.12
2019-03-30T10:31:02.904Z,19.91
2019-03-30T10:32:02.781Z,19.48
2019-03-30T10:33:03.635Z,20.09
2019-03-30T10:34:03.038Z,19.62
2019-03-30T10:35:02.901Z,21.07
2019-03-30T10:36:02.859Z,19.99
2019-03-30T10:37:02.644Z,19.74
2019-03-30T10:38:02.814Z,19.62
2019-03-30T10:39:02.790Z,19.48
2019-03-30T10:40:03.028Z,19.09
2019-03-30T10:41:02.746Z,18.15
2019-03-30T10:42:03.215Z,18.15
2019-03-30T10:43:02.891Z,18.69
2019-03-30T10:44:02.791Z,18.69
2019-03-30T10:45:03.151Z,19.31
2019-03-30T10:46:02.941Z,17.98
2019-03-30T10:47:02.844Z,17.98
2019-03-30T10:48:02.780Z,18.03
2019-03-30T10:49:02.911Z,18.72
2019-03-30T10:50:02.985Z,18.77
2019-03-30T10:51:03.035Z,18.63
2019-03-30T10:52:02.942Z,18.21
2019-03-30T10:53:03.041Z,18.28
2019-03-30T10:54:02.773Z,19.82
2019-03-30T10:55:03.307Z,18.68
2019-03-30T10:56:02.926Z,18.78
2019-03-30T10:57:02.781Z,18.36
2019-03-30T10:58:03.124Z,17.62
2019-03-30T10:59:03.621Z,17.71
2019-03-30T11:00:02.879Z,18.33
2019-03-30T11:01:02.662Z,18.9
2019-03-30T11:02:02.865Z,17.44
2019-03-30T11:03:02.854Z,18.54
2019-03-30T11:04:02.842Z,19.27
2019-03-30T11:05:02.597Z,18.64
2019-03-30T11:06:03.023Z,18.16
2019-03-30T11:07:03.377Z,18.42
2019-03-30T11:08:02.610Z,19.11
2019-03-30T11:09:03.006Z,18.12
2019-03-30T11:10:02.986Z,19.3
2019-03-30T11:11:03.614Z,17.65
2019-03-30T11:12:02.596Z,18.65
2019-03-30T11:13:03.052Z,18.09
2019-03-30T11:14:02.760Z,18.14
2019-03-30T11:15:02.988Z,17.09
2019-03-30T11:16:03.033Z,16.55
2019-03-30T11:17:02.815Z,16.2
2019-03-30T11:18:02.611Z,17.95
2019-03-30T11:19:03.134Z,16.87
2019-03-30T11:20:03.002Z,18.6
2019-03-30T11:21:02.984Z,17.76
2019-03-30T11:22:03.608Z,18.28
2019-03-30T11:23:02.975Z,18.19
2019-03-30T11:24:02.751Z,16.99
2019-03-30T11:25:09.029Z,17.77
2019-03-30T11:26:03.004Z,18.76
2019-03-30T11:27:02.854Z,18.44
2019-03-30T11:28:03.891Z,16.95
2019-03-30T11:29:02.796Z,17.31
2019-03-30T11:30:03.303Z,18.78
2019-03-30T11:31:05.728Z,18.52
2019-03-30T11:32:02.961Z,19
2019-03-30T11:33:02.847Z,19
2019-03-30T11:34:03.030Z,17.27
2019-03-30T11:35:02.889Z,17.08
2019-03-30T11:36:03.164Z,17.08
2019-03-30T11:37:02.827Z,18.45
2019-03-30T11:38:03.896Z,18.69
2019-03-30T11:39:03.730Z,18.69
2019-03-30T11:40:03.894Z,19.11
2019-03-30T11:41:03.873Z,18.38
2019-03-30T11:42:03.760Z,20.51
2019-03-30T11:43:02.614Z,17.89
2019-03-30T11:44:03.771Z,19.65
2019-03-30T11:45:03.337Z,19.22
2019-03-30T11:46:03.618Z,19.17
2019-03-30T11:47:03.642Z,19.14
2019-03-30T11:48:03.551Z,19.62
2019-03-30T11:49:02.898Z,18.75
2019-03-30T11:50:03.506Z,18.29
2019-03-30T11:51:02.877Z,19.51
2019-03-30T11:52:03.762Z,20.33
2019-03-30T11:53:02.682Z,18.46
2019-03-30T11:54:05.576Z,19.13
2019-03-30T11:55:03.718Z,18.25
2019-03-30T11:56:03.778Z,19.36
2019-03-30T11:57:02.853Z,18.37
2019-03-30T11:58:02.995Z,18.24
2019-03-30T11:59:03.798Z,18.04
2019-03-30T12:00:02.952Z,18.22
2019-03-30T12:01:03.741Z,19.54
2019-03-30T12:02:03.499Z,18.58
2019-03-30T12:03:03.780Z,19.48
2019-03-30T12:04:03.666Z,18.74
2019-03-30T12:05:02.917Z,20.58
2019-03-30T12:06:02.950Z,19.4
2019-03-30T12:07:03.031Z,19.15
2019-03-30T12:08:03.046Z,19.82
2019-03-30T12:09:02.915Z,20.82
2019-03-30T12:10:02.889Z,19.56
2019-03-30T12:11:02.872Z,20.17
2019-03-30T12:12:02.789Z,19.59
2019-03-30T12:13:03.499Z,20.55
2019-03-30T12:14:02.917Z,19.24
2019-03-30T12:15:02.888Z,18.74
2019-03-30T12:16:02.802Z,21.11
2019-03-30T12:17:02.942Z,20.98
2019-03-30T12:18:02.937Z,20.48
2019-03-30T12:19:02.995Z,20.07
2019-03-30T12:20:03.002Z,20.07
2019-03-30T12:21:02.885Z,19.84
2019-03-30T12:22:02.983Z,19.84
2019-03-30T12:23:02.999Z,19.07
2019-03-30T12:24:02.969Z,20.48
2019-03-30T12:25:03.008Z,21.25
2019-03-30T12:26:03.720Z,20.24
2019-03-30T12:27:02.845Z,19.64
2019-03-30T12:28:02.613Z,18.77
2019-03-30T12:29:03.764Z,19.23
2019-03-30T12:30:02.902Z,20.75
2019-03-30T12:31:02.794Z,18.65
2019-03-30T12:32:02.699Z,18.31
2019-03-30T12:33:03.736Z,19.36
2019-03-30T12:34:02.967Z,18.87
2019-03-30T12:35:03.161Z,19.12
2019-03-30T12:36:02.682Z,19.36
2019-03-30T12:37:03.638Z,17.39
2019-03-30T12:38:03.145Z,18.72
2019-03-30T12:39:02.981Z,19.74
2019-03-30T12:40:03.049Z,19.85
2019-03-30T12:41:03.006Z,18.59
2019-03-30T12:42:02.953Z,18.84
2019-03-30T12:43:03.031Z,18.36
2019-03-30T12:44:02.696Z,18.38
2019-03-30T12:45:03.262Z,18.25
2019-03-30T12:46:03.199Z,18.99
2019-03-30T12:47:02.698Z,18.98
2019-03-30T12:48:03.021Z,17.96
2019-03-30T12:49:03.420Z,18.06
2019-03-30T12:50:03.330Z,18.12
2019-03-30T12:51:03.558Z,18.05
2019-03-30T12:52:03.054Z,18.04
2019-03-30T12:53:03.316Z,16.69
2019-03-30T12:54:03.128Z,18.13